sensor_id;sensor_type;location;lat;lon;timestamp;P1;durP1;ratioP1;P2;durP2;ratioP2
74371;SDS011;62885;51.374;6.170;2023-04-30T00:00:47;10.60;;;5.75;;
74371;SDS011;62885;51.374;6.170;2023-04-30T00:03:13;9.73;;;5.13;;
74371;SDS011;62885;51.374;6.170;2023-04-30T00:05:38;13.32;;;5.25;;
74371;SDS011;62885;51.374;6.170;2023-04-30T00:08:03;8.95;;;5.10;;
74371;SDS011;62885;51.374;6.170;2023-04-30T00:10:29;9.25;;;4.63;;
74371;SDS011;62885;51.374;6.170;2023-04-30T00:12:54;10.40;;;5.43;;
74371;SDS011;62885;51.374;6.170;2023-04-30T00:15:21;8.40;;;5.03;;
74371;SDS011;62885;51.374;6.170;2023-04-30T00:17:46;10.32;;;5.10;;
74371;SDS011;62885;51.374;6.170;2023-04-30T00:20:11;8.93;;;4.85;;
74371;SDS011;62885;51.374;6.170;2023-04-30T00:22:37;10.75;;;5.40;;
74371;SDS011;62885;51.374;6.170;2023-04-30T00:25:03;11.52;;;5.63;;
74371;SDS011;62885;51.374;6.170;2023-04-30T00:27:28;10.50;;;5.22;;
74371;SDS011;62885;51.374;6.170;2023-04-30T00:29:55;10.55;;;5.38;;
74371;SDS011;62885;51.374;6.170;2023-04-30T00:32:21;11.38;;;4.95;;
74371;SDS011;62885;51.374;6.170;2023-04-30T00:34:46;16.70;;;6.95;;
74371;SDS011;62885;51.374;6.170;2023-04-30T00:37:12;9.98;;;5.15;;
74371;SDS011;62885;51.374;6.170;2023-04-30T00:39:37;10.98;;;5.55;;
74371;SDS011;62885;51.374;6.170;2023-04-30T00:42:03;12.43;;;5.30;;
74371;SDS011;62885;51.374;6.170;2023-04-30T00:44:29;10.00;;;5.45;;
74371;SDS011;62885;51.374;6.170;2023-04-30T00:46:54;11.30;;;6.15;;
74371;SDS011;62885;51.374;6.170;2023-04-30T00:49:19;11.93;;;6.90;;
74371;SDS011;62885;51.374;6.170;2023-04-30T00:51:45;11.05;;;5.95;;
74371;SDS011;62885;51.374;6.170;2023-04-30T00:54:10;12.40;;;6.38;;
74371;SDS011;62885;51.374;6.170;2023-04-30T00:56:36;10.57;;;5.82;;
74371;SDS011;62885;51.374;6.170;2023-04-30T00:59:02;10.60;;;6.53;;
74371;SDS011;62885;51.374;6.170;2023-04-30T01:01:27;13.90;;;7.10;;
74371;SDS011;62885;51.374;6.170;2023-04-30T01:03:53;10.40;;;5.95;;
74371;SDS011;62885;51.374;6.170;2023-04-30T01:06:19;13.15;;;6.85;;
74371;SDS011;62885;51.374;6.170;2023-04-30T01:08:44;11.55;;;6.78;;
74371;SDS011;62885;51.374;6.170;2023-04-30T01:11:16;12.80;;;7.15;;
74371;SDS011;62885;51.374;6.170;2023-04-30T01:14:00;12.40;;;6.55;;
74371;SDS011;62885;51.374;6.170;2023-04-30T01:16:28;10.50;;;6.15;;
74371;SDS011;62885;51.374;6.170;2023-04-30T01:18:58;11.02;;;6.55;;
74371;SDS011;62885;51.374;6.170;2023-04-30T01:21:29;11.50;;;7.30;;
74371;SDS011;62885;51.374;6.170;2023-04-30T01:29:53;14.45;;;7.25;;
74371;SDS011;62885;51.374;6.170;2023-04-30T01:32:19;13.82;;;7.30;;
74371;SDS011;62885;51.374;6.170;2023-04-30T01:34:45;13.05;;;6.43;;
74371;SDS011;62885;51.374;6.170;2023-04-30T01:40:17;11.77;;;6.90;;
74371;SDS011;62885;51.374;6.170;2023-04-30T01:42:55;10.98;;;6.15;;
74371;SDS011;62885;51.374;6.170;2023-04-30T01:48:42;12.52;;;5.85;;
74371;SDS011;62885;51.374;6.170;2023-04-30T01:51:27;12.82;;;6.85;;
74371;SDS011;62885;51.374;6.170;2023-04-30T01:53:56;18.95;;;7.55;;
74371;SDS011;62885;51.374;6.170;2023-04-30T01:56:35;11.35;;;6.53;;
74371;SDS011;62885;51.374;6.170;2023-04-30T01:59:05;11.77;;;6.75;;
74371;SDS011;62885;51.374;6.170;2023-04-30T02:01:31;12.70;;;6.82;;
74371;SDS011;62885;51.374;6.170;2023-04-30T02:03:57;11.32;;;6.72;;
74371;SDS011;62885;51.374;6.170;2023-04-30T02:06:23;11.57;;;6.22;;
74371;SDS011;62885;51.374;6.170;2023-04-30T02:08:54;11.40;;;6.65;;
74371;SDS011;62885;51.374;6.170;2023-04-30T02:11:20;11.32;;;5.70;;
74371;SDS011;62885;51.374;6.170;2023-04-30T02:13:48;11.90;;;6.93;;
74371;SDS011;62885;51.374;6.170;2023-04-30T02:16:14;12.15;;;7.38;;
74371;SDS011;62885;51.374;6.170;2023-04-30T02:18:39;11.77;;;6.85;;
74371;SDS011;62885;51.374;6.170;2023-04-30T02:21:05;13.27;;;6.93;;
74371;SDS011;62885;51.374;6.170;2023-04-30T02:23:30;13.57;;;8.23;;
74371;SDS011;62885;51.374;6.170;2023-04-30T02:25:55;12.73;;;7.22;;
74371;SDS011;62885;51.374;6.170;2023-04-30T02:28:21;14.30;;;7.82;;
74371;SDS011;62885;51.374;6.170;2023-04-30T02:30:46;12.63;;;7.00;;
74371;SDS011;62885;51.374;6.170;2023-04-30T02:33:11;12.70;;;7.25;;
74371;SDS011;62885;51.374;6.170;2023-04-30T02:35:38;10.63;;;7.05;;
74371;SDS011;62885;51.374;6.170;2023-04-30T02:38:05;12.18;;;7.05;;
74371;SDS011;62885;51.374;6.170;2023-04-30T02:40:30;11.52;;;6.85;;
74371;SDS011;62885;51.374;6.170;2023-04-30T02:42:55;13.07;;;7.43;;
74371;SDS011;62885;51.374;6.170;2023-04-30T02:45:21;12.30;;;7.00;;
74371;SDS011;62885;51.374;6.170;2023-04-30T02:47:46;13.55;;;7.82;;
74371;SDS011;62885;51.374;6.170;2023-04-30T02:50:12;12.88;;;7.35;;
74371;SDS011;62885;51.374;6.170;2023-04-30T02:52:38;11.95;;;6.97;;
74371;SDS011;62885;51.374;6.170;2023-04-30T02:55:04;11.18;;;7.47;;
74371;SDS011;62885;51.374;6.170;2023-04-30T02:57:30;12.45;;;7.65;;
74371;SDS011;62885;51.374;6.170;2023-04-30T02:59:56;12.32;;;7.00;;
74371;SDS011;62885;51.374;6.170;2023-04-30T03:02:21;12.30;;;7.00;;
74371;SDS011;62885;51.374;6.170;2023-04-30T03:04:47;13.40;;;7.90;;
74371;SDS011;62885;51.374;6.170;2023-04-30T03:07:13;14.15;;;7.18;;
74371;SDS011;62885;51.374;6.170;2023-04-30T03:09:38;14.18;;;6.65;;
74371;SDS011;62885;51.374;6.170;2023-04-30T03:12:04;10.88;;;6.35;;
74371;SDS011;62885;51.374;6.170;2023-04-30T03:14:29;12.90;;;7.55;;
74371;SDS011;62885;51.374;6.170;2023-04-30T03:16:55;13.98;;;7.38;;
74371;SDS011;62885;51.374;6.170;2023-04-30T03:19:20;11.40;;;6.82;;
74371;SDS011;62885;51.374;6.170;2023-04-30T03:21:49;13.45;;;6.15;;
74371;SDS011;62885;51.374;6.170;2023-04-30T03:24:15;14.40;;;7.20;;
74371;SDS011;62885;51.374;6.170;2023-04-30T03:26:40;13.00;;;6.55;;
74371;SDS011;62885;51.374;6.170;2023-04-30T03:29:06;15.45;;;6.78;;
74371;SDS011;62885;51.374;6.170;2023-04-30T03:31:32;18.58;;;7.78;;
74371;SDS011;62885;51.374;6.170;2023-04-30T03:33:57;11.50;;;6.40;;
74371;SDS011;62885;51.374;6.170;2023-04-30T03:36:22;14.05;;;7.70;;
74371;SDS011;62885;51.374;6.170;2023-04-30T03:38:48;11.10;;;6.32;;
74371;SDS011;62885;51.374;6.170;2023-04-30T03:41:13;11.88;;;7.60;;
74371;SDS011;62885;51.374;6.170;2023-04-30T03:43:38;17.80;;;10.57;;
74371;SDS011;62885;51.374;6.170;2023-04-30T03:46:04;15.07;;;8.07;;
74371;SDS011;62885;51.374;6.170;2023-04-30T03:48:29;12.57;;;7.47;;
74371;SDS011;62885;51.374;6.170;2023-04-30T03:50:55;15.38;;;7.68;;
74371;SDS011;62885;51.374;6.170;2023-04-30T03:53:20;12.20;;;6.88;;
74371;SDS011;62885;51.374;6.170;2023-04-30T03:55:46;13.57;;;7.45;;
74371;SDS011;62885;51.374;6.170;2023-04-30T03:58:13;11.98;;;7.40;;
74371;SDS011;62885;51.374;6.170;2023-04-30T04:00:39;14.10;;;8.48;;
74371;SDS011;62885;51.374;6.170;2023-04-30T04:03:05;12.20;;;7.32;;
74371;SDS011;62885;51.374;6.170;2023-04-30T04:05:31;12.88;;;7.55;;
74371;SDS011;62885;51.374;6.170;2023-04-30T04:07:56;12.10;;;7.45;;
74371;SDS011;62885;51.374;6.170;2023-04-30T04:10:22;12.80;;;6.53;;
74371;SDS011;62885;51.374;6.170;2023-04-30T04:12:47;15.07;;;9.35;;
74371;SDS011;62885;51.374;6.170;2023-04-30T04:15:13;18.33;;;11.52;;
74371;SDS011;62885;51.374;6.170;2023-04-30T04:17:38;14.88;;;9.20;;
74371;SDS011;62885;51.374;6.170;2023-04-30T04:20:03;11.48;;;6.57;;
74371;SDS011;62885;51.374;6.170;2023-04-30T04:22:30;12.20;;;7.22;;
74371;SDS011;62885;51.374;6.170;2023-04-30T04:24:55;12.13;;;6.45;;
74371;SDS011;62885;51.374;6.170;2023-04-30T04:27:21;15.68;;;7.07;;
74371;SDS011;62885;51.374;6.170;2023-04-30T04:29:47;11.25;;;6.55;;
74371;SDS011;62885;51.374;6.170;2023-04-30T04:32:12;12.57;;;7.07;;
74371;SDS011;62885;51.374;6.170;2023-04-30T04:34:40;11.63;;;7.22;;
74371;SDS011;62885;51.374;6.170;2023-04-30T04:37:07;14.77;;;7.75;;
74371;SDS011;62885;51.374;6.170;2023-04-30T04:39:33;14.65;;;8.05;;
74371;SDS011;62885;51.374;6.170;2023-04-30T04:42:00;13.70;;;7.43;;
74371;SDS011;62885;51.374;6.170;2023-04-30T04:44:26;13.70;;;6.60;;
74371;SDS011;62885;51.374;6.170;2023-04-30T04:46:51;13.80;;;7.57;;
74371;SDS011;62885;51.374;6.170;2023-04-30T04:49:17;11.85;;;7.43;;
74371;SDS011;62885;51.374;6.170;2023-04-30T04:51:43;13.32;;;6.72;;
74371;SDS011;62885;51.374;6.170;2023-04-30T04:54:08;10.90;;;6.53;;
74371;SDS011;62885;51.374;6.170;2023-04-30T04:56:34;10.88;;;5.75;;
74371;SDS011;62885;51.374;6.170;2023-04-30T04:58:59;12.02;;;6.20;;
74371;SDS011;62885;51.374;6.170;2023-04-30T05:01:25;13.50;;;6.78;;
74371;SDS011;62885;51.374;6.170;2023-04-30T05:03:50;12.00;;;6.65;;
74371;SDS011;62885;51.374;6.170;2023-04-30T05:06:17;11.85;;;6.25;;
74371;SDS011;62885;51.374;6.170;2023-04-30T05:08:43;11.63;;;6.15;;
74371;SDS011;62885;51.374;6.170;2023-04-30T05:11:08;11.70;;;7.18;;
74371;SDS011;62885;51.374;6.170;2023-04-30T05:13:34;10.52;;;6.32;;
74371;SDS011;62885;51.374;6.170;2023-04-30T05:15:59;15.25;;;5.90;;
74371;SDS011;62885;51.374;6.170;2023-04-30T05:18:25;10.07;;;7.07;;
74371;SDS011;62885;51.374;6.170;2023-04-30T05:20:50;11.45;;;6.25;;
74371;SDS011;62885;51.374;6.170;2023-04-30T05:23:16;13.77;;;6.45;;
74371;SDS011;62885;51.374;6.170;2023-04-30T05:25:41;11.88;;;6.72;;
74371;SDS011;62885;51.374;6.170;2023-04-30T05:28:07;11.55;;;6.35;;
74371;SDS011;62885;51.374;6.170;2023-04-30T05:30:32;11.02;;;5.40;;
74371;SDS011;62885;51.374;6.170;2023-04-30T05:32:57;10.90;;;5.15;;
74371;SDS011;62885;51.374;6.170;2023-04-30T05:35:25;10.50;;;6.13;;
74371;SDS011;62885;51.374;6.170;2023-04-30T05:37:50;9.85;;;6.30;;
74371;SDS011;62885;51.374;6.170;2023-04-30T05:40:16;10.07;;;5.60;;
74371;SDS011;62885;51.374;6.170;2023-04-30T05:42:41;10.75;;;5.95;;
74371;SDS011;62885;51.374;6.170;2023-04-30T05:45:10;9.73;;;6.28;;
74371;SDS011;62885;51.374;6.170;2023-04-30T05:47:38;13.38;;;6.00;;
74371;SDS011;62885;51.374;6.170;2023-04-30T05:50:04;10.93;;;6.20;;
74371;SDS011;62885;51.374;6.170;2023-04-30T05:52:30;9.73;;;5.43;;
74371;SDS011;62885;51.374;6.170;2023-04-30T05:54:56;12.07;;;5.82;;
74371;SDS011;62885;51.374;6.170;2023-04-30T05:57:22;11.27;;;5.90;;
74371;SDS011;62885;51.374;6.170;2023-04-30T05:59:47;11.05;;;6.18;;
74371;SDS011;62885;51.374;6.170;2023-04-30T06:02:13;10.57;;;5.72;;
74371;SDS011;62885;51.374;6.170;2023-04-30T06:04:38;10.82;;;5.63;;
74371;SDS011;62885;51.374;6.170;2023-04-30T06:07:04;12.32;;;6.30;;
74371;SDS011;62885;51.374;6.170;2023-04-30T06:09:29;13.45;;;7.45;;
74371;SDS011;62885;51.374;6.170;2023-04-30T06:11:54;9.82;;;6.43;;
74371;SDS011;62885;51.374;6.170;2023-04-30T06:14:20;11.88;;;6.35;;
74371;SDS011;62885;51.374;6.170;2023-04-30T06:16:48;13.48;;;7.15;;
74371;SDS011;62885;51.374;6.170;2023-04-30T06:19:14;10.75;;;7.15;;
74371;SDS011;62885;51.374;6.170;2023-04-30T06:21:40;10.32;;;5.90;;
74371;SDS011;62885;51.374;6.170;2023-04-30T06:24:07;13.75;;;7.05;;
74371;SDS011;62885;51.374;6.170;2023-04-30T06:26:33;12.45;;;7.20;;
74371;SDS011;62885;51.374;6.170;2023-04-30T06:28:58;11.65;;;7.40;;
74371;SDS011;62885;51.374;6.170;2023-04-30T06:31:24;11.10;;;6.90;;
74371;SDS011;62885;51.374;6.170;2023-04-30T06:33:50;11.98;;;7.32;;
74371;SDS011;62885;51.374;6.170;2023-04-30T06:36:16;12.77;;;6.78;;
74371;SDS011;62885;51.374;6.170;2023-04-30T06:38:42;12.70;;;7.28;;
74371;SDS011;62885;51.374;6.170;2023-04-30T06:41:08;10.90;;;6.47;;
74371;SDS011;62885;51.374;6.170;2023-04-30T06:43:33;11.20;;;6.93;;
74371;SDS011;62885;51.374;6.170;2023-04-30T06:45:59;11.77;;;7.38;;
74371;SDS011;62885;51.374;6.170;2023-04-30T06:48:24;12.07;;;6.82;;
74371;SDS011;62885;51.374;6.170;2023-04-30T06:50:52;11.40;;;7.10;;
74371;SDS011;62885;51.374;6.170;2023-04-30T06:53:17;10.90;;;6.95;;
74371;SDS011;62885;51.374;6.170;2023-04-30T06:55:43;11.45;;;7.07;;
74371;SDS011;62885;51.374;6.170;2023-04-30T06:58:09;12.05;;;6.97;;
74371;SDS011;62885;51.374;6.170;2023-04-30T07:00:34;12.40;;;6.65;;
74371;SDS011;62885;51.374;6.170;2023-04-30T07:03:00;13.00;;;7.35;;
74371;SDS011;62885;51.374;6.170;2023-04-30T07:05:27;13.10;;;8.10;;
74371;SDS011;62885;51.374;6.170;2023-04-30T07:07:53;11.75;;;6.80;;
74371;SDS011;62885;51.374;6.170;2023-04-30T07:10:19;11.15;;;6.97;;
74371;SDS011;62885;51.374;6.170;2023-04-30T07:12:44;11.68;;;6.90;;
74371;SDS011;62885;51.374;6.170;2023-04-30T07:15:10;14.48;;;7.63;;
74371;SDS011;62885;51.374;6.170;2023-04-30T07:17:35;13.10;;;7.30;;
74371;SDS011;62885;51.374;6.170;2023-04-30T07:20:02;12.98;;;7.28;;
74371;SDS011;62885;51.374;6.170;2023-04-30T07:22:28;14.43;;;8.73;;
74371;SDS011;62885;51.374;6.170;2023-04-30T07:24:57;11.18;;;7.53;;
74371;SDS011;62885;51.374;6.170;2023-04-30T07:27:22;11.45;;;7.13;;
74371;SDS011;62885;51.374;6.170;2023-04-30T07:29:48;14.18;;;6.88;;
74371;SDS011;62885;51.374;6.170;2023-04-30T07:32:13;11.57;;;7.72;;
74371;SDS011;62885;51.374;6.170;2023-04-30T07:34:40;11.13;;;6.88;;
74371;SDS011;62885;51.374;6.170;2023-04-30T07:37:06;11.57;;;7.43;;
74371;SDS011;62885;51.374;6.170;2023-04-30T07:39:32;13.88;;;7.60;;
74371;SDS011;62885;51.374;6.170;2023-04-30T07:41:58;11.73;;;7.30;;
74371;SDS011;62885;51.374;6.170;2023-04-30T07:44:23;13.50;;;7.50;;
74371;SDS011;62885;51.374;6.170;2023-04-30T07:46:51;12.40;;;6.30;;
74371;SDS011;62885;51.374;6.170;2023-04-30T07:49:16;13.07;;;7.60;;
74371;SDS011;62885;51.374;6.170;2023-04-30T07:51:41;12.03;;;6.80;;
74371;SDS011;62885;51.374;6.170;2023-04-30T07:54:07;13.82;;;6.85;;
74371;SDS011;62885;51.374;6.170;2023-04-30T07:56:32;11.38;;;6.00;;
74371;SDS011;62885;51.374;6.170;2023-04-30T07:58:57;10.55;;;6.05;;
74371;SDS011;62885;51.374;6.170;2023-04-30T08:01:23;14.23;;;8.00;;
74371;SDS011;62885;51.374;6.170;2023-04-30T08:03:48;11.32;;;6.85;;
74371;SDS011;62885;51.374;6.170;2023-04-30T08:06:13;12.55;;;7.22;;
74371;SDS011;62885;51.374;6.170;2023-04-30T08:08:39;10.80;;;6.75;;
74371;SDS011;62885;51.374;6.170;2023-04-30T08:11:04;13.40;;;7.97;;
74371;SDS011;62885;51.374;6.170;2023-04-30T08:13:30;10.75;;;7.38;;
74371;SDS011;62885;51.374;6.170;2023-04-30T08:15:55;15.18;;;8.80;;
74371;SDS011;62885;51.374;6.170;2023-04-30T08:18:20;11.90;;;7.50;;
74371;SDS011;62885;51.374;6.170;2023-04-30T08:20:46;15.07;;;7.28;;
74371;SDS011;62885;51.374;6.170;2023-04-30T08:23:12;13.10;;;7.15;;
74371;SDS011;62885;51.374;6.170;2023-04-30T08:25:37;12.43;;;7.57;;
74371;SDS011;62885;51.374;6.170;2023-04-30T08:28:03;12.88;;;8.07;;
74371;SDS011;62885;51.374;6.170;2023-04-30T08:30:28;12.88;;;7.65;;
74371;SDS011;62885;51.374;6.170;2023-04-30T08:32:54;14.07;;;8.10;;
74371;SDS011;62885;51.374;6.170;2023-04-30T08:35:19;13.10;;;7.22;;
74371;SDS011;62885;51.374;6.170;2023-04-30T08:37:45;11.50;;;6.85;;
74371;SDS011;62885;51.374;6.170;2023-04-30T08:40:10;11.55;;;6.55;;
74371;SDS011;62885;51.374;6.170;2023-04-30T08:42:36;11.98;;;7.18;;
74371;SDS011;62885;51.374;6.170;2023-04-30T08:45:06;12.73;;;6.95;;
74371;SDS011;62885;51.374;6.170;2023-04-30T08:47:35;12.05;;;6.05;;
74371;SDS011;62885;51.374;6.170;2023-04-30T08:50:03;11.43;;;6.57;;
74371;SDS011;62885;51.374;6.170;2023-04-30T08:52:29;10.93;;;7.47;;
74371;SDS011;62885;51.374;6.170;2023-04-30T08:54:58;10.68;;;6.78;;
74371;SDS011;62885;51.374;6.170;2023-04-30T08:57:25;10.90;;;6.45;;
74371;SDS011;62885;51.374;6.170;2023-04-30T08:59:52;12.13;;;7.05;;
74371;SDS011;62885;51.374;6.170;2023-04-30T09:02:18;9.82;;;6.28;;
74371;SDS011;62885;51.374;6.170;2023-04-30T09:04:44;10.15;;;5.88;;
74371;SDS011;62885;51.374;6.170;2023-04-30T09:07:10;14.43;;;7.25;;
74371;SDS011;62885;51.374;6.170;2023-04-30T09:09:38;8.90;;;5.15;;
74371;SDS011;62885;51.374;6.170;2023-04-30T09:12:14;10.68;;;6.10;;
74371;SDS011;62885;51.374;6.170;2023-04-30T09:17:32;9.95;;;5.68;;
74371;SDS011;62885;51.374;6.170;2023-04-30T09:22:37;9.75;;;4.88;;
74371;SDS011;62885;51.374;6.170;2023-04-30T09:25:05;9.00;;;4.82;;
74371;SDS011;62885;51.374;6.170;2023-04-30T09:27:32;9.10;;;6.10;;
74371;SDS011;62885;51.374;6.170;2023-04-30T09:29:58;11.10;;;6.70;;
74371;SDS011;62885;51.374;6.170;2023-04-30T09:32:23;7.55;;;4.68;;
74371;SDS011;62885;51.374;6.170;2023-04-30T09:34:49;8.13;;;4.70;;
74371;SDS011;62885;51.374;6.170;2023-04-30T09:37:14;8.07;;;3.70;;
74371;SDS011;62885;51.374;6.170;2023-04-30T09:39:49;7.85;;;4.60;;
74371;SDS011;62885;51.374;6.170;2023-04-30T09:42:16;10.48;;;4.72;;
74371;SDS011;62885;51.374;6.170;2023-04-30T09:44:43;8.52;;;4.88;;
74371;SDS011;62885;51.374;6.170;2023-04-30T09:47:13;7.60;;;4.40;;
74371;SDS011;62885;51.374;6.170;2023-04-30T09:49:40;8.30;;;4.47;;
74371;SDS011;62885;51.374;6.170;2023-04-30T09:52:07;7.28;;;4.45;;
74371;SDS011;62885;51.374;6.170;2023-04-30T09:54:32;8.60;;;4.95;;
74371;SDS011;62885;51.374;6.170;2023-04-30T09:56:59;7.10;;;4.05;;
74371;SDS011;62885;51.374;6.170;2023-04-30T09:59:32;7.65;;;4.28;;
74371;SDS011;62885;51.374;6.170;2023-04-30T10:02:04;7.97;;;4.30;;
74371;SDS011;62885;51.374;6.170;2023-04-30T10:04:32;8.65;;;4.65;;
74371;SDS011;62885;51.374;6.170;2023-04-30T10:07:01;7.07;;;3.13;;
74371;SDS011;62885;51.374;6.170;2023-04-30T10:09:32;4.80;;;2.40;;
74371;SDS011;62885;51.374;6.170;2023-04-30T10:12:04;6.70;;;3.85;;
74371;SDS011;62885;51.374;6.170;2023-04-30T10:14:36;5.88;;;2.88;;
74371;SDS011;62885;51.374;6.170;2023-04-30T10:17:09;6.63;;;3.40;;
74371;SDS011;62885;51.374;6.170;2023-04-30T10:19:38;6.00;;;3.13;;
74371;SDS011;62885;51.374;6.170;2023-04-30T10:22:05;6.32;;;3.67;;
74371;SDS011;62885;51.374;6.170;2023-04-30T10:24:31;6.78;;;4.20;;
74371;SDS011;62885;51.374;6.170;2023-04-30T10:26:58;6.57;;;3.58;;
74371;SDS011;62885;51.374;6.170;2023-04-30T10:29:24;6.13;;;3.15;;
74371;SDS011;62885;51.374;6.170;2023-04-30T10:31:50;6.13;;;3.45;;
74371;SDS011;62885;51.374;6.170;2023-04-30T10:34:34;7.85;;;4.47;;
74371;SDS011;62885;51.374;6.170;2023-04-30T10:40:03;7.68;;;4.20;;
74371;SDS011;62885;51.374;6.170;2023-04-30T10:42:29;8.15;;;4.05;;
74371;SDS011;62885;51.374;6.170;2023-04-30T10:44:55;7.88;;;3.45;;
74371;SDS011;62885;51.374;6.170;2023-04-30T10:47:26;8.23;;;4.03;;
74371;SDS011;62885;51.374;6.170;2023-04-30T10:49:55;6.90;;;3.80;;
74371;SDS011;62885;51.374;6.170;2023-04-30T10:52:27;9.23;;;4.70;;
74371;SDS011;62885;51.374;6.170;2023-04-30T10:54:53;7.97;;;3.92;;
74371;SDS011;62885;51.374;6.170;2023-04-30T10:57:19;7.70;;;4.18;;
74371;SDS011;62885;51.374;6.170;2023-04-30T11:00:16;8.88;;;4.47;;
74371;SDS011;62885;51.374;6.170;2023-04-30T11:02:44;7.57;;;3.90;;
74371;SDS011;62885;51.374;6.170;2023-04-30T11:05:12;7.20;;;3.75;;
74371;SDS011;62885;51.374;6.170;2023-04-30T11:08:12;6.03;;;3.30;;
74371;SDS011;62885;51.374;6.170;2023-04-30T11:10:35;5.97;;;3.42;;
74371;SDS011;62885;51.374;6.170;2023-04-30T11:13:04;5.63;;;3.33;;
74371;SDS011;62885;51.374;6.170;2023-04-30T11:15:38;5.63;;;3.20;;
74371;SDS011;62885;51.374;6.170;2023-04-30T11:18:06;8.02;;;3.90;;
74371;SDS011;62885;51.374;6.170;2023-04-30T11:20:32;6.60;;;3.20;;
74371;SDS011;62885;51.374;6.170;2023-04-30T11:23:07;6.05;;;3.15;;
74371;SDS011;62885;51.374;6.170;2023-04-30T11:25:44;7.22;;;2.90;;
74371;SDS011;62885;51.374;6.170;2023-04-30T11:28:18;6.10;;;3.30;;
74371;SDS011;62885;51.374;6.170;2023-04-30T11:33:20;6.65;;;3.42;;
74371;SDS011;62885;51.374;6.170;2023-04-30T11:35:47;6.68;;;3.80;;
74371;SDS011;62885;51.374;6.170;2023-04-30T11:38:16;8.48;;;3.38;;
74371;SDS011;62885;51.374;6.170;2023-04-30T11:40:45;8.30;;;3.55;;
74371;SDS011;62885;51.374;6.170;2023-04-30T11:48:39;8.38;;;3.35;;
74371;SDS011;62885;51.374;6.170;2023-04-30T11:53:40;8.13;;;3.97;;
74371;SDS011;62885;51.374;6.170;2023-04-30T11:56:06;8.77;;;4.75;;
74371;SDS011;62885;51.374;6.170;2023-04-30T11:58:32;6.82;;;4.00;;
74371;SDS011;62885;51.374;6.170;2023-04-30T12:01:07;8.85;;;4.50;;
74371;SDS011;62885;51.374;6.170;2023-04-30T12:03:43;6.45;;;4.18;;
74371;SDS011;62885;51.374;6.170;2023-04-30T12:06:26;6.78;;;4.53;;
74371;SDS011;62885;51.374;6.170;2023-04-30T12:08:52;7.50;;;4.68;;
74371;SDS011;62885;51.374;6.170;2023-04-30T12:11:23;8.23;;;4.70;;
74371;SDS011;62885;51.374;6.170;2023-04-30T12:13:54;11.90;;;5.05;;
74371;SDS011;62885;51.374;6.170;2023-04-30T12:19:18;9.65;;;5.15;;
74371;SDS011;62885;51.374;6.170;2023-04-30T12:21:45;6.80;;;4.88;;
74371;SDS011;62885;51.374;6.170;2023-04-30T12:24:11;6.78;;;4.75;;
74371;SDS011;62885;51.374;6.170;2023-04-30T12:26:37;7.07;;;4.95;;
74371;SDS011;62885;51.374;6.170;2023-04-30T12:29:05;6.63;;;4.72;;
74371;SDS011;62885;51.374;6.170;2023-04-30T12:31:33;7.75;;;5.07;;
74371;SDS011;62885;51.374;6.170;2023-04-30T12:34:02;8.32;;;4.72;;
74371;SDS011;62885;51.374;6.170;2023-04-30T12:36:29;8.73;;;5.50;;
74371;SDS011;62885;51.374;6.170;2023-04-30T12:39:04;5.45;;;3.08;;
74371;SDS011;62885;51.374;6.170;2023-04-30T12:41:53;7.65;;;4.22;;
74371;SDS011;62885;51.374;6.170;2023-04-30T12:44:22;7.30;;;4.53;;
74371;SDS011;62885;51.374;6.170;2023-04-30T12:46:49;6.75;;;4.43;;
74371;SDS011;62885;51.374;6.170;2023-04-30T12:51:50;6.88;;;5.18;;
74371;SDS011;62885;51.374;6.170;2023-04-30T12:54:29;7.97;;;5.20;;
74371;SDS011;62885;51.374;6.170;2023-04-30T12:59:31;6.85;;;4.40;;
74371;SDS011;62885;51.374;6.170;2023-04-30T13:02:05;6.13;;;4.55;;
74371;SDS011;62885;51.374;6.170;2023-04-30T13:04:35;6.38;;;4.15;;
74371;SDS011;62885;51.374;6.170;2023-04-30T13:07:01;5.85;;;4.30;;
74371;SDS011;62885;51.374;6.170;2023-04-30T13:09:27;7.13;;;4.97;;
74371;SDS011;62885;51.374;6.170;2023-04-30T13:11:52;8.18;;;4.38;;
74371;SDS011;62885;51.374;6.170;2023-04-30T13:14:18;9.32;;;4.85;;
74371;SDS011;62885;51.374;6.170;2023-04-30T13:16:43;6.50;;;4.28;;
74371;SDS011;62885;51.374;6.170;2023-04-30T13:19:09;6.30;;;3.95;;
74371;SDS011;62885;51.374;6.170;2023-04-30T13:21:34;7.28;;;4.22;;
74371;SDS011;62885;51.374;6.170;2023-04-30T13:24:00;6.13;;;3.45;;
74371;SDS011;62885;51.374;6.170;2023-04-30T13:26:26;6.50;;;4.18;;
74371;SDS011;62885;51.374;6.170;2023-04-30T13:28:52;7.35;;;3.00;;
74371;SDS011;62885;51.374;6.170;2023-04-30T13:31:17;6.88;;;3.42;;
74371;SDS011;62885;51.374;6.170;2023-04-30T13:33:43;6.13;;;3.50;;
74371;SDS011;62885;51.374;6.170;2023-04-30T13:36:08;7.32;;;3.67;;
74371;SDS011;62885;51.374;6.170;2023-04-30T13:38:34;5.28;;;3.20;;
74371;SDS011;62885;51.374;6.170;2023-04-30T13:40:59;7.30;;;3.78;;
74371;SDS011;62885;51.374;6.170;2023-04-30T13:43:25;5.15;;;3.08;;
74371;SDS011;62885;51.374;6.170;2023-04-30T13:45:50;5.18;;;3.42;;
74371;SDS011;62885;51.374;6.170;2023-04-30T13:48:15;4.53;;;2.33;;
74371;SDS011;62885;51.374;6.170;2023-04-30T13:50:41;2.88;;;2.03;;
74371;SDS011;62885;51.374;6.170;2023-04-30T13:53:06;5.75;;;2.50;;
74371;SDS011;62885;51.374;6.170;2023-04-30T13:55:32;8.05;;;3.03;;
74371;SDS011;62885;51.374;6.170;2023-04-30T13:57:57;6.00;;;2.75;;
74371;SDS011;62885;51.374;6.170;2023-04-30T14:00:22;5.07;;;2.70;;
74371;SDS011;62885;51.374;6.170;2023-04-30T14:02:48;3.80;;;2.50;;
74371;SDS011;62885;51.374;6.170;2023-04-30T14:05:13;3.70;;;2.60;;
74371;SDS011;62885;51.374;6.170;2023-04-30T14:07:39;3.65;;;2.35;;
74371;SDS011;62885;51.374;6.170;2023-04-30T14:10:05;5.13;;;2.45;;
74371;SDS011;62885;51.374;6.170;2023-04-30T14:12:34;3.83;;;2.50;;
74371;SDS011;62885;51.374;6.170;2023-04-30T14:14:59;4.90;;;2.78;;
74371;SDS011;62885;51.374;6.170;2023-04-30T14:17:25;4.40;;;2.28;;
74371;SDS011;62885;51.374;6.170;2023-04-30T14:19:54;4.45;;;1.80;;
74371;SDS011;62885;51.374;6.170;2023-04-30T14:22:19;4.63;;;2.25;;
74371;SDS011;62885;51.374;6.170;2023-04-30T14:24:45;6.25;;;2.58;;
74371;SDS011;62885;51.374;6.170;2023-04-30T14:27:10;4.00;;;2.38;;
74371;SDS011;62885;51.374;6.170;2023-04-30T14:29:36;3.88;;;2.08;;
74371;SDS011;62885;51.374;6.170;2023-04-30T14:32:01;3.05;;;2.03;;
74371;SDS011;62885;51.374;6.170;2023-04-30T14:34:28;5.43;;;2.38;;
74371;SDS011;62885;51.374;6.170;2023-04-30T14:36:53;5.75;;;2.42;;
74371;SDS011;62885;51.374;6.170;2023-04-30T14:39:18;3.03;;;1.92;;
74371;SDS011;62885;51.374;6.170;2023-04-30T14:41:44;3.33;;;1.90;;
74371;SDS011;62885;51.374;6.170;2023-04-30T14:44:09;3.80;;;2.40;;
74371;SDS011;62885;51.374;6.170;2023-04-30T14:46:35;3.72;;;2.08;;
74371;SDS011;62885;51.374;6.170;2023-04-30T14:49:00;5.93;;;2.42;;
74371;SDS011;62885;51.374;6.170;2023-04-30T14:51:25;3.25;;;2.10;;
74371;SDS011;62885;51.374;6.170;2023-04-30T14:53:52;3.55;;;2.33;;
74371;SDS011;62885;51.374;6.170;2023-04-30T14:56:18;3.92;;;2.08;;
74371;SDS011;62885;51.374;6.170;2023-04-30T14:58:43;5.25;;;2.40;;
74371;SDS011;62885;51.374;6.170;2023-04-30T15:01:08;4.15;;;2.60;;
74371;SDS011;62885;51.374;6.170;2023-04-30T15:03:36;3.85;;;2.10;;
74371;SDS011;62885;51.374;6.170;2023-04-30T15:06:02;5.38;;;2.30;;
74371;SDS011;62885;51.374;6.170;2023-04-30T15:08:27;3.80;;;2.05;;
74371;SDS011;62885;51.374;6.170;2023-04-30T15:10:53;4.60;;;1.85;;
74371;SDS011;62885;51.374;6.170;2023-04-30T15:13:19;4.47;;;1.95;;
74371;SDS011;62885;51.374;6.170;2023-04-30T15:15:45;3.78;;;1.63;;
74371;SDS011;62885;51.374;6.170;2023-04-30T15:18:11;3.17;;;1.80;;